sensor_id;sensor_type;location;lat;lon;timestamp;P1;durP1;ratioP1;P2;durP2;ratioP2
49934;SDS011;39898;41.762;26.200;2023-05-16T00:00:56;33.60;;;18.40;;
49934;SDS011;39898;41.762;26.200;2023-05-16T00:03:23;20.17;;;12.52;;
49934;SDS011;39898;41.762;26.200;2023-05-16T00:05:50;26.80;;;18.15;;
49934;SDS011;39898;41.762;26.200;2023-05-16T00:08:17;29.05;;;17.90;;
49934;SDS011;39898;41.762;26.200;2023-05-16T00:10:43;27.48;;;17.50;;
49934;SDS011;39898;41.762;26.200;2023-05-16T00:13:10;29.80;;;17.27;;
49934;SDS011;39898;41.762;26.200;2023-05-16T00:15:37;28.45;;;16.50;;
49934;SDS011;39898;41.762;26.200;2023-05-16T00:18:04;26.33;;;16.77;;
49934;SDS011;39898;41.762;26.200;2023-05-16T00:20:30;22.33;;;16.48;;
49934;SDS011;39898;41.762;26.200;2023-05-16T00:22:57;24.77;;;17.40;;
49934;SDS011;39898;41.762;26.200;2023-05-16T00:25:26;25.55;;;17.55;;
49934;SDS011;39898;41.762;26.200;2023-05-16T00:27:54;34.03;;;18.17;;
49934;SDS011;39898;41.762;26.200;2023-05-16T00:30:20;23.58;;;17.85;;
49934;SDS011;39898;41.762;26.200;2023-05-16T00:32:48;21.17;;;12.53;;
49934;SDS011;39898;41.762;26.200;2023-05-16T00:35:14;23.92;;;17.88;;
49934;SDS011;39898;41.762;26.200;2023-05-16T00:37:41;27.05;;;18.92;;
49934;SDS011;39898;41.762;26.200;2023-05-16T00:40:08;27.92;;;18.23;;
49934;SDS011;39898;41.762;26.200;2023-05-16T00:42:36;23.50;;;17.98;;
49934;SDS011;39898;41.762;26.200;2023-05-16T00:45:04;26.25;;;19.17;;
49934;SDS011;39898;41.762;26.200;2023-05-16T00:47:30;27.10;;;18.87;;
49934;SDS011;39898;41.762;26.200;2023-05-16T00:49:57;27.10;;;18.83;;
49934;SDS011;39898;41.762;26.200;2023-05-16T00:52:24;27.98;;;19.52;;
49934;SDS011;39898;41.762;26.200;2023-05-16T00:54:51;27.88;;;18.67;;
49934;SDS011;39898;41.762;26.200;2023-05-16T00:57:18;29.02;;;18.73;;
49934;SDS011;39898;41.762;26.200;2023-05-16T00:59:45;26.27;;;18.50;;
49934;SDS011;39898;41.762;26.200;2023-05-16T01:02:12;31.38;;;19.23;;
49934;SDS011;39898;41.762;26.200;2023-05-16T01:04:39;32.95;;;20.45;;
49934;SDS011;39898;41.762;26.200;2023-05-16T01:07:06;30.60;;;19.08;;
49934;SDS011;39898;41.762;26.200;2023-05-16T01:09:33;30.13;;;20.25;;
49934;SDS011;39898;41.762;26.200;2023-05-16T01:17:04;30.75;;;20.02;;
49934;SDS011;39898;41.762;26.200;2023-05-16T01:25:00;30.17;;;21.00;;
49934;SDS011;39898;41.762;26.200;2023-05-16T01:27:27;33.97;;;22.08;;
49934;SDS011;39898;41.762;26.200;2023-05-16T01:29:55;29.92;;;21.17;;
49934;SDS011;39898;41.762;26.200;2023-05-16T01:32:22;35.40;;;22.50;;
49934;SDS011;39898;41.762;26.200;2023-05-16T01:34:49;35.88;;;21.77;;
49934;SDS011;39898;41.762;26.200;2023-05-16T01:40:15;34.53;;;22.35;;
49934;SDS011;39898;41.762;26.200;2023-05-16T01:42:44;33.70;;;22.17;;
49934;SDS011;39898;41.762;26.200;2023-05-16T01:45:14;39.75;;;23.95;;
49934;SDS011;39898;41.762;26.200;2023-05-16T01:47:44;36.72;;;23.83;;
49934;SDS011;39898;41.762;26.200;2023-05-16T01:50:14;42.42;;;24.55;;
49934;SDS011;39898;41.762;26.200;2023-05-16T01:55:09;44.42;;;23.67;;
49934;SDS011;39898;41.762;26.200;2023-05-16T01:57:37;40.88;;;25.33;;
49934;SDS011;39898;41.762;26.200;2023-05-16T02:00:05;44.13;;;25.13;;
49934;SDS011;39898;41.762;26.200;2023-05-16T02:02:32;35.88;;;24.73;;
49934;SDS011;39898;41.762;26.200;2023-05-16T02:04:58;39.85;;;25.20;;
49934;SDS011;39898;41.762;26.200;2023-05-16T02:07:25;42.92;;;26.38;;
49934;SDS011;39898;41.762;26.200;2023-05-16T02:09:52;40.72;;;26.17;;
49934;SDS011;39898;41.762;26.200;2023-05-16T02:12:18;44.50;;;25.20;;
49934;SDS011;39898;41.762;26.200;2023-05-16T02:14:45;47.42;;;26.67;;
49934;SDS011;39898;41.762;26.200;2023-05-16T02:17:12;38.13;;;25.48;;
49934;SDS011;39898;41.762;26.200;2023-05-16T02:19:39;41.30;;;25.65;;
49934;SDS011;39898;41.762;26.200;2023-05-16T02:22:05;38.70;;;24.20;;
49934;SDS011;39898;41.762;26.200;2023-05-16T02:24:32;40.13;;;25.98;;
49934;SDS011;39898;41.762;26.200;2023-05-16T02:26:59;41.93;;;26.80;;
49934;SDS011;39898;41.762;26.200;2023-05-16T02:29:27;44.17;;;28.87;;
49934;SDS011;39898;41.762;26.200;2023-05-16T02:31:53;40.63;;;25.92;;
49934;SDS011;39898;41.762;26.200;2023-05-16T02:34:20;44.90;;;27.98;;
49934;SDS011;39898;41.762;26.200;2023-05-16T02:36:46;43.78;;;29.10;;
49934;SDS011;39898;41.762;26.200;2023-05-16T02:39:13;48.90;;;28.35;;
49934;SDS011;39898;41.762;26.200;2023-05-16T02:41:39;45.72;;;29.35;;
49934;SDS011;39898;41.762;26.200;2023-05-16T02:44:06;39.55;;;28.63;;
49934;SDS011;39898;41.762;26.200;2023-05-16T02:46:33;38.33;;;28.17;;
49934;SDS011;39898;41.762;26.200;2023-05-16T02:49:00;48.65;;;28.55;;
49934;SDS011;39898;41.762;26.200;2023-05-16T02:51:27;40.53;;;27.15;;
49934;SDS011;39898;41.762;26.200;2023-05-16T02:53:53;37.58;;;25.02;;
49934;SDS011;39898;41.762;26.200;2023-05-16T02:56:22;44.92;;;27.98;;
49934;SDS011;39898;41.762;26.200;2023-05-16T02:58:49;42.05;;;27.02;;
49934;SDS011;39898;41.762;26.200;2023-05-16T03:01:16;44.33;;;27.27;;
49934;SDS011;39898;41.762;26.200;2023-05-16T03:03:42;48.28;;;28.42;;
49934;SDS011;39898;41.762;26.200;2023-05-16T03:06:09;45.60;;;29.98;;
49934;SDS011;39898;41.762;26.200;2023-05-16T03:08:36;50.38;;;29.75;;
49934;SDS011;39898;41.762;26.200;2023-05-16T03:11:03;50.92;;;30.40;;
49934;SDS011;39898;41.762;26.200;2023-05-16T03:13:29;48.17;;;31.10;;
49934;SDS011;39898;41.762;26.200;2023-05-16T03:15:56;43.60;;;30.33;;
49934;SDS011;39898;41.762;26.200;2023-05-16T03:18:22;49.55;;;31.80;;
49934;SDS011;39898;41.762;26.200;2023-05-16T03:20:49;50.30;;;32.55;;
49934;SDS011;39898;41.762;26.200;2023-05-16T03:23:18;50.03;;;32.67;;
49934;SDS011;39898;41.762;26.200;2023-05-16T03:25:45;52.13;;;32.53;;
49934;SDS011;39898;41.762;26.200;2023-05-16T03:28:12;50.92;;;32.30;;
49934;SDS011;39898;41.762;26.200;2023-05-16T03:30:40;53.35;;;33.15;;
49934;SDS011;39898;41.762;26.200;2023-05-16T03:33:07;55.55;;;33.38;;
49934;SDS011;39898;41.762;26.200;2023-05-16T03:35:34;47.30;;;31.45;;
49934;SDS011;39898;41.762;26.200;2023-05-16T03:38:01;50.07;;;31.57;;
49934;SDS011;39898;41.762;26.200;2023-05-16T03:40:28;47.38;;;30.55;;
49934;SDS011;39898;41.762;26.200;2023-05-16T03:42:55;53.75;;;32.45;;
49934;SDS011;39898;41.762;26.200;2023-05-16T03:45:21;53.47;;;31.58;;
49934;SDS011;39898;41.762;26.200;2023-05-16T03:47:48;49.40;;;30.48;;
49934;SDS011;39898;41.762;26.200;2023-05-16T03:50:15;47.00;;;30.38;;
49934;SDS011;39898;41.762;26.200;2023-05-16T03:52:42;51.72;;;31.58;;
49934;SDS011;39898;41.762;26.200;2023-05-16T03:55:09;49.35;;;31.80;;
49934;SDS011;39898;41.762;26.200;2023-05-16T03:57:36;54.00;;;31.90;;
49934;SDS011;39898;41.762;26.200;2023-05-16T04:00:03;56.38;;;31.92;;
49934;SDS011;39898;41.762;26.200;2023-05-16T04:02:33;49.67;;;31.58;;
49934;SDS011;39898;41.762;26.200;2023-05-16T04:05:00;48.00;;;31.30;;
49934;SDS011;39898;41.762;26.200;2023-05-16T04:07:26;57.17;;;32.38;;
49934;SDS011;39898;41.762;26.200;2023-05-16T04:09:53;54.15;;;31.80;;
49934;SDS011;39898;41.762;26.200;2023-05-16T04:12:20;53.17;;;32.80;;
49934;SDS011;39898;41.762;26.200;2023-05-16T04:14:48;52.35;;;30.25;;
49934;SDS011;39898;41.762;26.200;2023-05-16T04:17:14;50.88;;;31.65;;
49934;SDS011;39898;41.762;26.200;2023-05-16T04:19:41;47.60;;;29.98;;
49934;SDS011;39898;41.762;26.200;2023-05-16T04:22:08;46.00;;;30.77;;
49934;SDS011;39898;41.762;26.200;2023-05-16T04:24:35;51.70;;;29.58;;
49934;SDS011;39898;41.762;26.200;2023-05-16T04:27:01;50.17;;;31.27;;
49934;SDS011;39898;41.762;26.200;2023-05-16T04:31:57;56.38;;;33.55;;
49934;SDS011;39898;41.762;26.200;2023-05-16T04:34:24;61.28;;;32.63;;
49934;SDS011;39898;41.762;26.200;2023-05-16T04:36:53;51.33;;;30.20;;
49934;SDS011;39898;41.762;26.200;2023-05-16T04:39:20;45.17;;;27.95;;
49934;SDS011;39898;41.762;26.200;2023-05-16T04:41:47;39.42;;;25.90;;
49934;SDS011;39898;41.762;26.200;2023-05-16T04:44:14;43.42;;;27.23;;
49934;SDS011;39898;41.762;26.200;2023-05-16T04:46:40;44.55;;;27.25;;
49934;SDS011;39898;41.762;26.200;2023-05-16T04:49:07;44.60;;;26.40;;
49934;SDS011;39898;41.762;26.200;2023-05-16T04:51:34;43.45;;;26.42;;
49934;SDS011;39898;41.762;26.200;2023-05-16T04:54:00;34.00;;;24.73;;
49934;SDS011;39898;41.762;26.200;2023-05-16T04:56:27;38.45;;;25.15;;
49934;SDS011;39898;41.762;26.200;2023-05-16T04:58:53;39.13;;;26.10;;
49934;SDS011;39898;41.762;26.200;2023-05-16T05:01:20;38.05;;;26.77;;
49934;SDS011;39898;41.762;26.200;2023-05-16T05:03:47;43.20;;;26.92;;
49934;SDS011;39898;41.762;26.200;2023-05-16T05:06:13;43.28;;;27.63;;
49934;SDS011;39898;41.762;26.200;2023-05-16T05:08:40;44.85;;;29.27;;
49934;SDS011;39898;41.762;26.200;2023-05-16T05:11:07;50.03;;;30.35;;
49934;SDS011;39898;41.762;26.200;2023-05-16T05:13:33;45.30;;;30.20;;
49934;SDS011;39898;41.762;26.200;2023-05-16T05:16:00;48.42;;;29.55;;
49934;SDS011;39898;41.762;26.200;2023-05-16T05:18:29;46.53;;;29.73;;
49934;SDS011;39898;41.762;26.200;2023-05-16T05:20:56;48.35;;;29.83;;
49934;SDS011;39898;41.762;26.200;2023-05-16T05:23:23;44.40;;;28.40;;
49934;SDS011;39898;41.762;26.200;2023-05-16T05:25:50;46.40;;;28.15;;
49934;SDS011;39898;41.762;26.200;2023-05-16T05:28:16;39.45;;;28.25;;
49934;SDS011;39898;41.762;26.200;2023-05-16T05:30:43;40.28;;;26.60;;
49934;SDS011;39898;41.762;26.200;2023-05-16T05:33:10;44.47;;;27.95;;
49934;SDS011;39898;41.762;26.200;2023-05-16T05:35:37;42.78;;;27.40;;
49934;SDS011;39898;41.762;26.200;2023-05-16T05:38:03;48.22;;;28.70;;
49934;SDS011;39898;41.762;26.200;2023-05-16T05:40:30;61.67;;;29.92;;
49934;SDS011;39898;41.762;26.200;2023-05-16T05:42:56;48.50;;;28.02;;
49934;SDS011;39898;41.762;26.200;2023-05-16T05:45:23;50.03;;;29.05;;
49934;SDS011;39898;41.762;26.200;2023-05-16T05:47:50;38.20;;;28.13;;
49934;SDS011;39898;41.762;26.200;2023-05-16T05:50:16;45.35;;;29.90;;
49934;SDS011;39898;41.762;26.200;2023-05-16T05:52:43;44.38;;;28.20;;
49934;SDS011;39898;41.762;26.200;2023-05-16T05:55:09;40.80;;;27.30;;
49934;SDS011;39898;41.762;26.200;2023-05-16T05:57:36;51.33;;;29.60;;
49934;SDS011;39898;41.762;26.200;2023-05-16T06:00:03;42.10;;;28.00;;
49934;SDS011;39898;41.762;26.200;2023-05-16T06:02:30;51.87;;;28.43;;
49934;SDS011;39898;41.762;26.200;2023-05-16T06:04:57;47.92;;;28.48;;
49934;SDS011;39898;41.762;26.200;2023-05-16T06:07:24;43.95;;;27.65;;
49934;SDS011;39898;41.762;26.200;2023-05-16T06:09:50;40.45;;;24.15;;
49934;SDS011;39898;41.762;26.200;2023-05-16T06:12:17;42.95;;;23.52;;
49934;SDS011;39898;41.762;26.200;2023-05-16T06:14:44;34.30;;;21.80;;
49934;SDS011;39898;41.762;26.200;2023-05-16T06:17:10;32.70;;;21.27;;
49934;SDS011;39898;41.762;26.200;2023-05-16T06:19:37;32.30;;;19.13;;
49934;SDS011;39898;41.762;26.200;2023-05-16T06:22:03;29.70;;;19.77;;
49934;SDS011;39898;41.762;26.200;2023-05-16T06:24:30;34.50;;;20.05;;
49934;SDS011;39898;41.762;26.200;2023-05-16T06:26:56;34.97;;;20.08;;
49934;SDS011;39898;41.762;26.200;2023-05-16T06:29:23;35.03;;;19.35;;
49934;SDS011;39898;41.762;26.200;2023-05-16T06:31:50;30.65;;;20.65;;
49934;SDS011;39898;41.762;26.200;2023-05-16T06:34:16;26.65;;;17.45;;
49934;SDS011;39898;41.762;26.200;2023-05-16T06:36:43;26.73;;;17.58;;
49934;SDS011;39898;41.762;26.200;2023-05-16T06:39:10;27.48;;;15.75;;
49934;SDS011;39898;41.762;26.200;2023-05-16T06:41:36;28.73;;;16.00;;
49934;SDS011;39898;41.762;26.200;2023-05-16T06:44:03;26.35;;;16.67;;
49934;SDS011;39898;41.762;26.200;2023-05-16T06:46:30;25.85;;;17.08;;
49934;SDS011;39898;41.762;26.200;2023-05-16T06:48:58;30.02;;;17.05;;
49934;SDS011;39898;41.762;26.200;2023-05-16T06:51:24;25.60;;;16.40;;
49934;SDS011;39898;41.762;26.200;2023-05-16T06:53:51;19.52;;;14.65;;
49934;SDS011;39898;41.762;26.200;2023-05-16T06:56:18;29.77;;;14.55;;
49934;SDS011;39898;41.762;26.200;2023-05-16T06:58:44;20.55;;;13.68;;
49934;SDS011;39898;41.762;26.200;2023-05-16T07:01:11;25.75;;;14.18;;
49934;SDS011;39898;41.762;26.200;2023-05-16T07:03:37;22.33;;;12.90;;
49934;SDS011;39898;41.762;26.200;2023-05-16T07:06:05;24.30;;;14.20;;
49934;SDS011;39898;41.762;26.200;2023-05-16T07:08:32;26.08;;;13.40;;
49934;SDS011;39898;41.762;26.200;2023-05-16T07:11:01;26.95;;;13.20;;
49934;SDS011;39898;41.762;26.200;2023-05-16T07:13:27;20.90;;;13.20;;
49934;SDS011;39898;41.762;26.200;2023-05-16T07:15:54;20.00;;;11.60;;
49934;SDS011;39898;41.762;26.200;2023-05-16T07:18:21;19.95;;;12.35;;
49934;SDS011;39898;41.762;26.200;2023-05-16T07:20:47;22.58;;;12.07;;
49934;SDS011;39898;41.762;26.200;2023-05-16T07:23:14;21.20;;;11.07;;
49934;SDS011;39898;41.762;26.200;2023-05-16T07:25:40;16.45;;;10.00;;
49934;SDS011;39898;41.762;26.200;2023-05-16T07:28:07;17.73;;;10.10;;
49934;SDS011;39898;41.762;26.200;2023-05-16T07:30:34;18.27;;;9.93;;
49934;SDS011;39898;41.762;26.200;2023-05-16T07:33:00;17.65;;;9.88;;
49934;SDS011;39898;41.762;26.200;2023-05-16T07:35:27;19.02;;;9.85;;
49934;SDS011;39898;41.762;26.200;2023-05-16T07:37:54;18.17;;;10.05;;
49934;SDS011;39898;41.762;26.200;2023-05-16T07:40:21;16.42;;;10.27;;
49934;SDS011;39898;41.762;26.200;2023-05-16T07:42:51;16.02;;;9.93;;
49934;SDS011;39898;41.762;26.200;2023-05-16T07:45:17;20.05;;;9.93;;
49934;SDS011;39898;41.762;26.200;2023-05-16T07:47:44;17.25;;;9.43;;
49934;SDS011;39898;41.762;26.200;2023-05-16T07:50:11;14.88;;;7.75;;
49934;SDS011;39898;41.762;26.200;2023-05-16T07:52:38;12.07;;;6.95;;
49934;SDS011;39898;41.762;26.200;2023-05-16T07:55:04;14.80;;;7.55;;
49934;SDS011;39898;41.762;26.200;2023-05-16T07:57:31;13.60;;;8.15;;
49934;SDS011;39898;41.762;26.200;2023-05-16T07:59:58;11.45;;;7.53;;
49934;SDS011;39898;41.762;26.200;2023-05-16T08:02:25;16.48;;;7.90;;
49934;SDS011;39898;41.762;26.200;2023-05-16T08:04:56;21.98;;;7.43;;
49934;SDS011;39898;41.762;26.200;2023-05-16T08:07:23;8.18;;;5.30;;
49934;SDS011;39898;41.762;26.200;2023-05-16T08:09:52;10.77;;;5.75;;
49934;SDS011;39898;41.762;26.200;2023-05-16T08:12:18;13.00;;;6.95;;
49934;SDS011;39898;41.762;26.200;2023-05-16T08:14:45;9.93;;;6.28;;
49934;SDS011;39898;41.762;26.200;2023-05-16T08:17:12;16.25;;;6.88;;
49934;SDS011;39898;41.762;26.200;2023-05-16T08:19:38;15.30;;;6.65;;
49934;SDS011;39898;41.762;26.200;2023-05-16T08:22:05;11.73;;;6.28;;
49934;SDS011;39898;41.762;26.200;2023-05-16T08:24:32;13.30;;;6.97;;
49934;SDS011;39898;41.762;26.200;2023-05-16T08:26:59;18.60;;;7.18;;
49934;SDS011;39898;41.762;26.200;2023-05-16T08:29:25;9.63;;;6.95;;
49934;SDS011;39898;41.762;26.200;2023-05-16T08:31:52;15.07;;;6.45;;
49934;SDS011;39898;41.762;26.200;2023-05-16T08:34:19;13.30;;;6.97;;
49934;SDS011;39898;41.762;26.200;2023-05-16T08:36:45;10.38;;;6.07;;
49934;SDS011;39898;41.762;26.200;2023-05-16T08:39:12;19.45;;;7.47;;
49934;SDS011;39898;41.762;26.200;2023-05-16T08:41:39;12.93;;;6.03;;
49934;SDS011;39898;41.762;26.200;2023-05-16T08:44:05;11.15;;;6.53;;
49934;SDS011;39898;41.762;26.200;2023-05-16T08:46:32;11.43;;;6.15;;
49934;SDS011;39898;41.762;26.200;2023-05-16T08:49:01;14.27;;;6.28;;
49934;SDS011;39898;41.762;26.200;2023-05-16T08:51:31;18.67;;;6.60;;
49934;SDS011;39898;41.762;26.200;2023-05-16T08:54:05;22.50;;;6.65;;
49934;SDS011;39898;41.762;26.200;2023-05-16T08:56:32;10.48;;;5.68;;
49934;SDS011;39898;41.762;26.200;2023-05-16T08:58:59;14.77;;;5.90;;
49934;SDS011;39898;41.762;26.200;2023-05-16T09:01:26;15.27;;;6.50;;
49934;SDS011;39898;41.762;26.200;2023-05-16T09:03:53;13.45;;;6.68;;
49934;SDS011;39898;41.762;26.200;2023-05-16T09:06:20;16.33;;;6.95;;
49934;SDS011;39898;41.762;26.200;2023-05-16T09:08:47;10.75;;;6.10;;
49934;SDS011;39898;41.762;26.200;2023-05-16T09:11:14;17.58;;;6.20;;
49934;SDS011;39898;41.762;26.200;2023-05-16T09:13:41;12.50;;;5.95;;
49934;SDS011;39898;41.762;26.200;2023-05-16T09:16:12;10.13;;;5.97;;
49934;SDS011;39898;41.762;26.200;2023-05-16T09:18:39;12.85;;;5.22;;
49934;SDS011;39898;41.762;26.200;2023-05-16T09:21:06;14.13;;;6.22;;
49934;SDS011;39898;41.762;26.200;2023-05-16T09:23:33;15.77;;;5.55;;
49934;SDS011;39898;41.762;26.200;2023-05-16T09:26:04;14.05;;;5.70;;
49934;SDS011;39898;41.762;26.200;2023-05-16T09:28:30;13.85;;;5.53;;
49934;SDS011;39898;41.762;26.200;2023-05-16T09:30:57;12.98;;;5.40;;
49934;SDS011;39898;41.762;26.200;2023-05-16T09:33:28;18.23;;;5.45;;
49934;SDS011;39898;41.762;26.200;2023-05-16T09:35:55;8.95;;;5.15;;
49934;SDS011;39898;41.762;26.200;2023-05-16T09:38:24;9.05;;;5.40;;
49934;SDS011;39898;41.762;26.200;2023-05-16T09:40:52;10.80;;;5.28;;
49934;SDS011;39898;41.762;26.200;2023-05-16T09:43:19;10.55;;;5.25;;
49934;SDS011;39898;41.762;26.200;2023-05-16T09:45:47;10.88;;;5.25;;
49934;SDS011;39898;41.762;26.200;2023-05-16T09:48:14;14.27;;;5.43;;
49934;SDS011;39898;41.762;26.200;2023-05-16T09:50:51;16.63;;;5.82;;
49934;SDS011;39898;41.762;26.200;2023-05-16T09:53:26;12.23;;;5.32;;
49934;SDS011;39898;41.762;26.200;2023-05-16T09:55:59;12.68;;;5.35;;
49934;SDS011;39898;41.762;26.200;2023-05-16T09:58:27;14.50;;;5.75;;
49934;SDS011;39898;41.762;26.200;2023-05-16T10:00:54;9.33;;;6.03;;
49934;SDS011;39898;41.762;26.200;2023-05-16T10:03:21;10.57;;;5.07;;
49934;SDS011;39898;41.762;26.200;2023-05-16T10:05:48;16.48;;;5.22;;
49934;SDS011;39898;41.762;26.200;2023-05-16T10:08:15;11.93;;;4.72;;
49934;SDS011;39898;41.762;26.200;2023-05-16T10:10:42;13.52;;;5.22;;
49934;SDS011;39898;41.762;26.200;2023-05-16T10:13:08;11.15;;;5.03;;
49934;SDS011;39898;41.762;26.200;2023-05-16T10:15:36;14.65;;;5.65;;
49934;SDS011;39898;41.762;26.200;2023-05-16T10:18:03;18.10;;;5.55;;
49934;SDS011;39898;41.762;26.200;2023-05-16T10:20:38;10.88;;;5.93;;
49934;SDS011;39898;41.762;26.200;2023-05-16T10:25:33;12.15;;;5.03;;
49934;SDS011;39898;41.762;26.200;2023-05-16T10:27:59;12.98;;;5.18;;
49934;SDS011;39898;41.762;26.200;2023-05-16T10:30:27;13.82;;;5.65;;
49934;SDS011;39898;41.762;26.200;2023-05-16T10:32:54;21.75;;;5.68;;
49934;SDS011;39898;41.762;26.200;2023-05-16T10:35:22;17.75;;;5.68;;
49934;SDS011;39898;41.762;26.200;2023-05-16T10:37:49;11.00;;;4.97;;
49934;SDS011;39898;41.762;26.200;2023-05-16T10:40:16;12.88;;;4.97;;
49934;SDS011;39898;41.762;26.200;2023-05-16T10:42:43;8.70;;;4.93;;
49934;SDS011;39898;41.762;26.200;2023-05-16T10:45:19;19.25;;;5.25;;
49934;SDS011;39898;41.762;26.200;2023-05-16T10:47:50;10.18;;;5.53;;
49934;SDS011;39898;41.762;26.200;2023-05-16T10:53:11;14.77;;;4.95;;
49934;SDS011;39898;41.762;26.200;2023-05-16T10:55:38;15.10;;;5.60;;
49934;SDS011;39898;41.762;26.200;2023-05-16T10:58:05;13.02;;;5.50;;
49934;SDS011;39898;41.762;26.200;2023-05-16T11:00:33;12.13;;;4.78;;
49934;SDS011;39898;41.762;26.200;2023-05-16T11:03:04;13.10;;;4.80;;
49934;SDS011;39898;41.762;26.200;2023-05-16T11:05:31;13.88;;;4.95;;
49934;SDS011;39898;41.762;26.200;2023-05-16T11:08:02;22.20;;;5.70;;
49934;SDS011;39898;41.762;26.200;2023-05-16T11:10:30;12.70;;;4.78;;
49934;SDS011;39898;41.762;26.200;2023-05-16T11:13:01;13.43;;;5.67;;
49934;SDS011;39898;41.762;26.200;2023-05-16T11:15:32;11.70;;;5.15;;
49934;SDS011;39898;41.762;26.200;2023-05-16T11:18:04;10.40;;;4.85;;
49934;SDS011;39898;41.762;26.200;2023-05-16T11:20:36;11.45;;;5.70;;
49934;SDS011;39898;41.762;26.200;2023-05-16T11:25:50;11.48;;;4.75;;
49934;SDS011;39898;41.762;26.200;2023-05-16T11:28:17;13.43;;;4.85;;
49934;SDS011;39898;41.762;26.200;2023-05-16T11:30:46;15.27;;;5.13;;
49934;SDS011;39898;41.762;26.200;2023-05-16T11:35:39;13.07;;;4.95;;
49934;SDS011;39898;41.762;26.200;2023-05-16T11:38:10;13.10;;;4.78;;
49934;SDS011;39898;41.762;26.200;2023-05-16T11:40:40;12.88;;;4.88;;
49934;SDS011;39898;41.762;26.200;2023-05-16T11:43:07;8.50;;;5.07;;
49934;SDS011;39898;41.762;26.200;2023-05-16T11:45:33;12.82;;;5.60;;
49934;SDS011;39898;41.762;26.200;2023-05-16T11:48:00;16.98;;;5.00;;
49934;SDS011;39898;41.762;26.200;2023-05-16T11:50:27;9.18;;;4.45;;
49934;SDS011;39898;41.762;26.200;2023-05-16T11:52:54;14.10;;;5.10;;
49934;SDS011;39898;41.762;26.200;2023-05-16T11:55:24;8.80;;;4.85;;
49934;SDS011;39898;41.762;26.200;2023-05-16T11:58:07;13.18;;;4.95;;
49934;SDS011;39898;41.762;26.200;2023-05-16T12:00:34;12.30;;;4.80;;
49934;SDS011;39898;41.762;26.200;2023-05-16T12:03:01;13.48;;;5.15;;
49934;SDS011;39898;41.762;26.200;2023-05-16T12:05:30;18.73;;;4.95;;
49934;SDS011;39898;41.762;26.200;2023-05-16T12:07:58;9.70;;;4.13;;
49934;SDS011;39898;41.762;26.200;2023-05-16T12:10:25;15.70;;;5.20;;
49934;SDS011;39898;41.762;26.200;2023-05-16T12:12:52;10.13;;;4.30;;
49934;SDS011;39898;41.762;26.200;2023-05-16T12:15:20;15.57;;;5.28;;
49934;SDS011;39898;41.762;26.200;2023-05-16T12:17:46;12.77;;;4.72;;
49934;SDS011;39898;41.762;26.200;2023-05-16T12:20:13;14.20;;;4.90;;
49934;SDS011;39898;41.762;26.200;2023-05-16T12:22:42;11.75;;;5.13;;
49934;SDS011;39898;41.762;26.200;2023-05-16T12:25:25;34.25;;;5.00;;
49934;SDS011;39898;41.762;26.200;2023-05-16T12:27:53;14.40;;;4.65;;
49934;SDS011;39898;41.762;26.200;2023-05-16T12:30:21;17.95;;;4.57;;
49934;SDS011;39898;41.762;26.200;2023-05-16T12:32:56;11.40;;;4.82;;
49934;SDS011;39898;41.762;26.200;2023-05-16T12:35:24;16.83;;;4.80;;
49934;SDS011;39898;41.762;26.200;2023-05-16T12:37:50;18.33;;;4.32;;
49934;SDS011;39898;41.762;26.200;2023-05-16T12:40:18;13.18;;;5.20;;
49934;SDS011;39898;41.762;26.200;2023-05-16T12:45:15;16.45;;;4.47;;
49934;SDS011;39898;41.762;26.200;2023-05-16T12:47:42;11.48;;;4.18;;
49934;SDS011;39898;41.762;26.200;2023-05-16T12:50:10;11.33;;;4.47;;
49934;SDS011;39898;41.762;26.200;2023-05-16T12:52:52;17.00;;;4.85;;
49934;SDS011;39898;41.762;26.200;2023-05-16T12:55:20;15.23;;;4.68;;
49934;SDS011;39898;41.762;26.200;2023-05-16T12:57:47;14.90;;;4.25;;
49934;SDS011;39898;41.762;26.200;2023-05-16T13:00:15;13.45;;;4.50;;
49934;SDS011;39898;41.762;26.200;2023-05-16T13:02:45;13.50;;;4.03;;
49934;SDS011;39898;41.762;26.200;2023-05-16T13:05:13;13.95;;;4.20;;
49934;SDS011;39898;41.762;26.200;2023-05-16T13:07:40;15.93;;;4.20;;
49934;SDS011;39898;41.762;26.200;2023-05-16T13:10:07;19.38;;;4.65;;
49934;SDS011;39898;41.762;26.200;2023-05-16T13:12:36;12.25;;;4.50;;
49934;SDS011;39898;41.762;26.200;2023-05-16T13:17:30;13.35;;;4.65;;
49934;SDS011;39898;41.762;26.200;2023-05-16T13:19:56;17.58;;;4.13;;
49934;SDS011;39898;41.762;26.200;2023-05-16T13:22:23;30.52;;;4.93;;
49934;SDS011;39898;41.762;26.200;2023-05-16T13:24:50;20.58;;;4.25;;
49934;SDS011;39898;41.762;26.200;2023-05-16T13:27:16;20.30;;;5.07;;
49934;SDS011;39898;41.762;26.200;2023-05-16T13:29:43;11.70;;;4.15;;
49934;SDS011;39898;41.762;26.200;2023-05-16T13:32:10;11.43;;;3.85;;
49934;SDS011;39898;41.762;26.200;2023-05-16T13:34:36;17.50;;;4.25;;
49934;SDS011;39898;41.762;26.200;2023-05-16T13:37:03;10.82;;;3.58;;
49934;SDS011;39898;41.762;26.200;2023-05-16T13:39:30;13.75;;;4.22;;
49934;SDS011;39898;41.762;26.200;2023-05-16T13:41:56;14.15;;;4.28;;
49934;SDS011;39898;41.762;26.200;2023-05-16T13:44:25;14.70;;;4.45;;
49934;SDS011;39898;41.762;26.200;2023-05-16T13:46:52;13.63;;;4.43;;
49934;SDS011;39898;41.762;26.200;2023-05-16T13:49:19;18.40;;;4.53;;
49934;SDS011;39898;41.762;26.200;2023-05-16T13:51:46;14.88;;;4.88;;
49934;SDS011;39898;41.762;26.200;2023-05-16T13:54:13;11.18;;;5.18;;
49934;SDS011;39898;41.762;26.200;2023-05-16T13:56:39;12.05;;;4.88;;
49934;SDS011;39898;41.762;26.200;2023-05-16T13:59:07;18.17;;;4.63;;
49934;SDS011;39898;41.762;26.200;2023-05-16T14:01:37;14.73;;;5.13;;
49934;SDS011;39898;41.762;26.200;2023-05-16T14:04:04;8.25;;;4.65;;
49934;SDS011;39898;41.762;26.200;2023-05-16T14:06:31;16.00;;;5.07;;
49934;SDS011;39898;41.762;26.200;2023-05-16T14:08:58;16.27;;;4.47;;
49934;SDS011;39898;41.762;26.200;2023-05-16T14:11:25;11.23;;;4.25;;
49934;SDS011;39898;41.762;26.200;2023-05-16T14:13:54;12.63;;;5.10;;
49934;SDS011;39898;41.762;26.200;2023-05-16T14:16:21;22.52;;;5.35;;
49934;SDS011;39898;41.762;26.200;2023-05-16T14:18:48;23.42;;;5.38;;
49934;SDS011;39898;41.762;26.200;2023-05-16T14:21:15;11.93;;;4.25;;
49934;SDS011;39898;41.762;26.200;2023-05-16T14:23:41;14.77;;;5.15;;
49934;SDS011;39898;41.762;26.200;2023-05-16T14:26:08;15.68;;;5.20;;
49934;SDS011;39898;41.762;26.200;2023-05-16T14:28:35;23.98;;;5.55;;
49934;SDS011;39898;41.762;26.200;2023-05-16T14:31:01;12.57;;;4.95;;
49934;SDS011;39898;41.762;26.200;2023-05-16T14:33:28;16.83;;;4.78;;
49934;SDS011;39898;41.762;26.200;2023-05-16T14:35:56;14.38;;;5.20;;
49934;SDS011;39898;41.762;26.200;2023-05-16T14:38:22;21.73;;;5.40;;
49934;SDS011;39898;41.762;26.200;2023-05-16T14:40:49;23.17;;;5.15;;
49934;SDS011;39898;41.762;26.200;2023-05-16T14:43:16;11.38;;;5.03;;
49934;SDS011;39898;41.762;26.200;2023-05-16T14:45:42;14.25;;;4.80;;
49934;SDS011;39898;41.762;26.200;2023-05-16T14:48:09;15.43;;;4.97;;
49934;SDS011;39898;41.762;26.200;2023-05-16T14:50:36;19.88;;;4.57;;